createdAt,value
2018-07-17T00:00:31.653Z,57.00
2018-07-17T00:01:34.101Z,57.40
2018-07-17T00:02:36.406Z,57.20
2018-07-17T00:03:38.778Z,57.40
2018-07-17T00:04:41.104Z,57.20
2018-07-17T00:05:43.332Z,57.50
2018-07-17T00:06:46.006Z,57.70
2018-07-17T00:08:50.752Z,57.80
2018-07-17T00:09:53.198Z,58.20
2018-07-17T00:10:55.390Z,58.20
2018-07-17T00:12:59.819Z,58.50
2018-07-17T00:15:04.313Z,58.20
2018-07-17T00:16:06.540Z,58.10
2018-07-17T00:17:08.725Z,58.10
2018-07-17T00:18:10.942Z,58.20
2018-07-17T00:20:15.323Z,58.50
2018-07-17T00:21:17.552Z,59.20
2018-07-17T00:22:19.729Z,58.50
2018-07-17T00:23:21.974Z,58.80
2018-07-17T00:24:24.195Z,58.90
2018-07-17T00:25:26.477Z,59.00
2018-07-17T00:26:28.650Z,59.10
2018-07-17T00:27:30.866Z,59.20
2018-07-17T00:28:33.058Z,58.80
2018-07-17T00:29:35.250Z,59.00
2018-07-17T00:30:37.479Z,59.10
2018-07-17T00:31:39.678Z,58.90
2018-07-17T00:32:41.876Z,59.20
2018-07-17T00:33:44.110Z,59.00
2018-07-17T00:34:46.325Z,59.40
2018-07-17T00:35:48.589Z,59.50
2018-07-17T00:36:50.805Z,59.70
2018-07-17T00:37:52.998Z,59.70
2018-07-17T00:38:55.197Z,59.70
2018-07-17T00:39:57.381Z,59.70
2018-07-17T00:40:59.547Z,60.10
2018-07-17T00:42:01.818Z,60.60
2018-07-17T00:43:04.070Z,60.80
2018-07-17T00:44:06.325Z,61.10
2018-07-17T00:45:08.615Z,61.40
2018-07-17T00:46:10.793Z,61.40
2018-07-17T00:47:13.003Z,61.80
2018-07-17T00:48:15.218Z,62.20
2018-07-17T00:50:19.598Z,62.10
2018-07-17T00:51:21.794Z,62.20
2018-07-17T00:52:23.971Z,62.00
2018-07-17T00:53:26.162Z,62.50
2018-07-17T00:54:28.366Z,63.10
2018-07-17T00:55:30.559Z,63.00
2018-07-17T00:56:32.750Z,63.30
2018-07-17T00:57:34.939Z,63.20
2018-07-17T00:59:39.419Z,63.20
2018-07-17T01:00:44.231Z,63.30
2018-07-17T01:01:52.314Z,63.70
2018-07-17T01:03:00.170Z,63.60
2018-07-17T01:04:08.152Z,64.70
2018-07-17T01:05:16.082Z,63.60
2018-07-17T01:06:24.070Z,63.90
2018-07-17T01:07:32.006Z,64.50
2018-07-17T01:08:39.863Z,63.80
2018-07-17T01:09:47.825Z,63.80
2018-07-17T01:10:55.747Z,63.70
2018-07-17T01:12:03.665Z,63.70
2018-07-17T01:13:05.418Z,63.70
2018-07-17T01:14:11.508Z,63.80
2018-07-17T01:16:21.534Z,64.40
2018-07-17T01:17:24.226Z,63.70
2018-07-17T01:18:26.402Z,64.10
2018-07-17T01:19:28.577Z,64.20
2018-07-17T01:20:30.991Z,64.30
2018-07-17T01:21:33.177Z,63.90
2018-07-17T01:22:35.390Z,63.90
2018-07-17T01:23:37.572Z,63.70
2018-07-17T01:24:39.782Z,63.90
2018-07-17T01:25:42.006Z,64.10
2018-07-17T01:26:44.190Z,63.90
2018-07-17T01:27:46.414Z,64.20
2018-07-17T01:28:48.605Z,64.20
2018-07-17T01:29:50.845Z,64.50
2018-07-17T01:31:55.247Z,64.30
2018-07-17T01:32:57.463Z,64.40
2018-07-17T01:33:59.639Z,64.70
2018-07-17T01:35:01.818Z,64.70
2018-07-17T01:37:07.246Z,64.60
2018-07-17T01:38:09.450Z,64.40
2018-07-17T01:40:13.868Z,65.40
2018-07-17T01:41:16.050Z,64.90
2018-07-17T01:42:18.275Z,64.70
2018-07-17T01:43:20.478Z,64.50
2018-07-17T01:44:22.675Z,64.40
2018-07-17T01:45:24.883Z,64.50
2018-07-17T01:46:27.076Z,64.40
2018-07-17T01:47:29.273Z,64.20
2018-07-17T01:48:31.476Z,64.40
2018-07-17T01:49:33.654Z,64.50
2018-07-17T01:51:38.063Z,64.30
2018-07-17T01:52:40.229Z,64.10
2018-07-17T01:53:42.473Z,64.10
2018-07-17T01:55:46.886Z,63.80
2018-07-17T01:56:49.065Z,63.70
2018-07-17T01:57:51.470Z,63.60
2018-07-17T01:58:53.688Z,63.60
2018-07-17T01:59:55.906Z,63.70
2018-07-17T02:00:58.119Z,64.50
2018-07-17T02:02:00.310Z,63.60
2018-07-17T02:03:02.510Z,64.00
2018-07-17T02:04:04.815Z,63.90
2018-07-17T02:05:07.030Z,63.60
2018-07-17T02:06:09.214Z,64.00
2018-07-17T02:07:11.410Z,64.00
2018-07-17T02:08:13.630Z,64.00
2018-07-17T02:09:15.824Z,63.50
2018-07-17T02:10:17.986Z,63.60
2018-07-17T02:11:20.198Z,64.20
2018-07-17T02:13:24.570Z,63.60
2018-07-17T02:14:26.745Z,63.60
2018-07-17T02:15:28.971Z,63.80
2018-07-17T02:17:33.390Z,64.00
2018-07-17T02:18:35.584Z,64.00
2018-07-17T02:19:37.779Z,64.30
2018-07-17T02:20:39.975Z,64.30
2018-07-17T02:21:42.151Z,64.40
2018-07-17T02:22:44.323Z,64.80
2018-07-17T02:24:48.743Z,64.80
2018-07-17T02:26:53.136Z,64.80
2018-07-17T02:28:57.553Z,65.00
2018-07-17T02:29:59.752Z,65.40
2018-07-17T02:31:01.959Z,65.60
2018-07-17T02:32:04.163Z,65.30
2018-07-17T02:33:06.423Z,65.50
2018-07-17T02:35:10.823Z,65.20
2018-07-17T02:36:13.007Z,65.60
2018-07-17T02:37:15.219Z,65.60
2018-07-17T02:38:17.413Z,65.70
2018-07-17T02:39:19.723Z,65.70
2018-07-17T02:40:21.926Z,66.50
2018-07-17T02:41:24.098Z,65.80
2018-07-17T02:42:26.417Z,65.80
2018-07-17T02:43:28.471Z,65.80
2018-07-17T02:44:30.670Z,66.90
2018-07-17T02:45:32.926Z,65.90
2018-07-17T02:47:37.294Z,66.10
2018-07-17T02:48:39.518Z,66.00
2018-07-17T02:49:41.697Z,66.40
2018-07-17T02:50:43.923Z,66.40
2018-07-17T02:51:46.123Z,66.40
2018-07-17T02:52:48.322Z,66.40
2018-07-17T02:53:50.535Z,66.60
2018-07-17T02:54:52.758Z,66.50
2018-07-17T02:55:54.954Z,66.40
2018-07-17T02:57:59.362Z,66.20
2018-07-17T02:59:01.572Z,66.00
2018-07-17T03:00:03.796Z,65.90
2018-07-17T03:01:05.981Z,66.00
2018-07-17T03:02:08.198Z,66.00
2018-07-17T03:03:10.439Z,65.80
2018-07-17T03:04:12.636Z,65.50
2018-07-17T03:05:14.826Z,65.80
2018-07-17T03:06:17.029Z,66.10
2018-07-17T03:07:19.426Z,66.00
2018-07-17T03:08:21.645Z,66.20
2018-07-17T03:09:23.897Z,66.30
2018-07-17T03:10:26.101Z,66.20
2018-07-17T03:11:28.300Z,66.90
2018-07-17T03:13:32.675Z,66.60
2018-07-17T03:14:34.902Z,66.80
2018-07-17T03:15:37.202Z,67.00
2018-07-17T03:16:39.396Z,67.00
2018-07-17T03:17:41.601Z,67.40
2018-07-17T03:18:43.773Z,66.60
2018-07-17T03:19:45.989Z,66.80
2018-07-17T03:20:48.170Z,67.00
2018-07-17T03:21:50.378Z,67.00
2018-07-17T03:22:52.578Z,67.20
2018-07-17T03:23:54.803Z,66.90
2018-07-17T03:24:57.038Z,66.60
2018-07-17T03:25:59.237Z,66.50
2018-07-17T03:27:01.444Z,66.50
2018-07-17T03:28:03.646Z,66.50
2018-07-17T03:30:08.101Z,66.60
2018-07-17T03:31:10.271Z,66.50
2018-07-17T03:32:12.457Z,66.30
2018-07-17T03:33:14.677Z,66.20
2018-07-17T03:34:16.861Z,66.20
2018-07-17T03:35:19.078Z,66.20
2018-07-17T03:36:21.295Z,66.50
2018-07-17T03:37:23.506Z,66.40
2018-07-17T03:38:25.686Z,66.10
2018-07-17T03:39:27.890Z,65.90
2018-07-17T03:40:30.079Z,66.00
2018-07-17T03:42:34.510Z,65.90
2018-07-17T03:43:36.718Z,65.90
2018-07-17T03:44:38.919Z,65.90
2018-07-17T03:46:43.332Z,66.00
2018-07-17T03:47:45.551Z,66.00
2018-07-17T03:48:47.848Z,66.20
2018-07-17T03:49:50.064Z,66.20
2018-07-17T03:50:52.275Z,66.40
2018-07-17T03:51:54.449Z,66.20
2018-07-17T03:52:56.661Z,66.60
2018-07-17T03:53:58.888Z,66.10
2018-07-17T03:55:01.102Z,66.20
2018-07-17T03:56:03.333Z,66.40
2018-07-17T03:57:05.617Z,66.10
2018-07-17T03:58:07.793Z,66.10
2018-07-17T03:59:09.994Z,65.90
2018-07-17T04:00:12.185Z,65.90
2018-07-17T04:01:14.444Z,66.00
2018-07-17T04:02:16.610Z,66.10
2018-07-17T04:03:18.854Z,66.00
2018-07-17T04:04:21.072Z,66.00
2018-07-17T04:05:23.234Z,65.80
2018-07-17T04:06:25.438Z,66.10
2018-07-17T04:07:27.639Z,65.90
2018-07-17T04:08:29.812Z,65.90
2018-07-17T04:09:31.990Z,66.10
2018-07-17T04:10:34.196Z,66.20
2018-07-17T04:11:36.426Z,66.00
2018-07-17T04:12:38.606Z,66.10
2018-07-17T04:13:40.785Z,66.10
2018-07-17T04:14:42.969Z,65.90
2018-07-17T04:15:45.173Z,65.90
2018-07-17T04:17:54.291Z,65.80
2018-07-17T04:18:56.479Z,65.90
2018-07-17T04:19:58.659Z,65.90
2018-07-17T04:21:00.875Z,66.10
2018-07-17T04:22:03.102Z,65.90
2018-07-17T04:25:09.950Z,66.30
2018-07-17T04:26:12.130Z,66.20
2018-07-17T04:27:14.335Z,66.00
2018-07-17T04:28:16.553Z,65.90
2018-07-17T04:29:18.795Z,66.10
2018-07-17T04:30:21.043Z,66.10
2018-07-17T04:31:23.250Z,66.10
2018-07-17T04:32:25.453Z,66.30
2018-07-17T04:34:29.865Z,66.40
2018-07-17T04:35:32.101Z,66.20
2018-07-17T04:36:34.306Z,66.30
2018-07-17T04:37:36.491Z,66.10
2018-07-17T04:38:38.665Z,66.20
2018-07-17T04:39:40.826Z,66.10
2018-07-17T04:40:43.073Z,66.20
2018-07-17T04:41:45.285Z,66.10
2018-07-17T04:42:47.488Z,66.20
2018-07-17T04:43:49.692Z,66.00
2018-07-17T04:44:51.886Z,65.90
2018-07-17T04:45:54.145Z,65.80
2018-07-17T04:46:56.344Z,65.60
2018-07-17T04:47:58.521Z,66.30
2018-07-17T04:49:00.760Z,65.30
2018-07-17T04:50:02.990Z,65.80
2018-07-17T04:51:05.207Z,65.30
2018-07-17T04:52:07.412Z,65.40
2018-07-17T04:53:09.609Z,65.30
2018-07-17T04:54:11.786Z,65.60
2018-07-17T04:55:13.997Z,65.50
2018-07-17T04:56:16.247Z,65.70
2018-07-17T04:57:18.447Z,65.10
2018-07-17T04:58:20.652Z,65.10
2018-07-17T04:59:22.839Z,64.90
2018-07-17T05:00:25.074Z,65.00
2018-07-17T05:01:27.349Z,65.00
2018-07-17T05:02:29.533Z,65.20
2018-07-17T05:03:31.758Z,65.10
2018-07-17T05:05:36.165Z,65.10
2018-07-17T05:07:40.629Z,65.00
2018-07-17T05:08:42.822Z,65.00
2018-07-17T05:09:45.015Z,64.90
2018-07-17T05:10:47.203Z,64.90
2018-07-17T05:11:49.416Z,64.90
2018-07-17T05:12:51.634Z,64.90
2018-07-17T05:13:53.811Z,64.70
2018-07-17T05:14:56.027Z,65.00
2018-07-17T05:15:58.203Z,65.10
2018-07-17T05:17:00.427Z,64.80
2018-07-17T05:18:02.625Z,64.60
2018-07-17T05:20:07.088Z,64.70
2018-07-17T05:22:11.544Z,64.10
2018-07-17T05:24:15.921Z,63.90
2018-07-17T05:26:20.365Z,63.80
2018-07-17T05:27:22.589Z,63.80
2018-07-17T05:28:24.778Z,63.80
2018-07-17T05:29:26.986Z,63.70
2018-07-17T05:30:29.194Z,63.70
2018-07-17T05:31:31.393Z,63.70
2018-07-17T05:32:33.607Z,64.90
2018-07-17T05:33:35.833Z,63.20
2018-07-17T05:34:38.599Z,63.10
2018-07-17T05:35:40.787Z,63.00
2018-07-17T05:36:43.023Z,63.40
2018-07-17T05:37:45.278Z,63.10
2018-07-17T05:38:47.467Z,63.20
2018-07-17T05:40:52.034Z,62.30
2018-07-17T05:41:54.260Z,62.50
2018-07-17T05:42:56.482Z,62.20
2018-07-17T05:43:58.672Z,62.50
2018-07-17T05:45:00.867Z,62.10
2018-07-17T05:46:03.125Z,61.90
2018-07-17T05:47:05.376Z,61.60
2018-07-17T05:48:07.637Z,61.50
2018-07-17T05:49:09.830Z,61.40
2018-07-17T05:50:12.242Z,61.00
2018-07-17T05:51:14.466Z,60.80
2018-07-17T05:52:16.672Z,60.70
2018-07-17T05:53:18.870Z,60.80
2018-07-17T05:54:21.119Z,60.30
2018-07-17T05:55:23.322Z,60.00
2018-07-17T05:56:25.511Z,60.00
2018-07-17T05:57:27.720Z,59.70
2018-07-17T05:58:29.939Z,59.30
2018-07-17T05:59:32.166Z,59.30
2018-07-17T06:00:34.347Z,59.30
2018-07-17T06:01:36.546Z,59.40
2018-07-17T06:02:38.886Z,59.10
2018-07-17T06:03:47.815Z,59.10
2018-07-17T06:04:50.019Z,59.40
2018-07-17T06:05:52.222Z,58.80
2018-07-17T06:06:54.427Z,58.20
2018-07-17T06:07:56.645Z,57.70
2018-07-17T06:08:58.879Z,57.70
2018-07-17T06:10:01.225Z,57.80
2018-07-17T06:11:03.479Z,57.70
2018-07-17T06:12:05.714Z,57.60
2018-07-17T06:13:07.930Z,57.30
2018-07-17T06:14:10.187Z,58.00
2018-07-17T06:15:12.407Z,57.00
2018-07-17T06:16:14.613Z,56.80
2018-07-17T06:17:16.858Z,56.80
2018-07-17T06:18:19.103Z,56.50
2018-07-17T06:19:21.884Z,56.60
2018-07-17T06:20:27.099Z,56.30
2018-07-17T06:21:29.362Z,56.30
2018-07-17T06:22:31.603Z,56.00
2018-07-17T06:23:33.792Z,55.80
2018-07-17T06:24:36.010Z,55.50
2018-07-17T06:26:40.465Z,55.30
2018-07-17T06:27:42.668Z,55.20
2018-07-17T06:28:44.890Z,54.90
2018-07-17T06:29:47.071Z,55.10
2018-07-17T06:30:49.274Z,54.70
2018-07-17T06:32:53.725Z,54.30
2018-07-17T06:33:55.920Z,54.10
2018-07-17T06:34:58.141Z,54.40
2018-07-17T06:36:00.334Z,54.00
2018-07-17T06:37:02.561Z,54.10
2018-07-17T06:38:05.007Z,54.00
2018-07-17T06:39:07.734Z,53.90
2018-07-17T06:40:09.955Z,53.80
2018-07-17T06:41:12.176Z,53.60
2018-07-17T06:42:14.358Z,53.70
2018-07-17T06:43:16.793Z,53.60
2018-07-17T06:45:21.329Z,54.20
2018-07-17T06:46:23.592Z,53.60
2018-07-17T06:47:25.798Z,53.50
2018-07-17T06:48:28.004Z,53.70
2018-07-17T06:49:30.202Z,53.70
2018-07-17T06:50:32.513Z,53.70
2018-07-17T06:51:34.647Z,53.70
2018-07-17T06:52:36.889Z,53.60
2018-07-17T06:53:39.089Z,53.50
2018-07-17T06:55:43.563Z,53.80
2018-07-17T06:56:45.883Z,53.30
2018-07-17T06:57:48.090Z,53.70
2018-07-17T06:58:50.294Z,53.80
2018-07-17T06:59:52.530Z,53.70
2018-07-17T07:00:54.775Z,53.70
2018-07-17T07:01:57.014Z,54.40
2018-07-17T07:02:59.249Z,54.00
2018-07-17T07:04:01.473Z,54.20
2018-07-17T07:06:05.963Z,54.10
2018-07-17T07:07:08.166Z,54.30
2018-07-17T07:08:10.364Z,54.20
2018-07-17T07:09:12.591Z,54.30
2018-07-17T07:10:14.802Z,54.20
2018-07-17T07:11:17.050Z,54.10
2018-07-17T07:12:19.194Z,54.00
2018-07-17T07:13:21.395Z,54.00
2018-07-17T07:14:23.639Z,54.10
2018-07-17T07:15:25.868Z,54.10
2018-07-17T07:16:28.090Z,54.20
2018-07-17T07:17:30.290Z,54.10
2018-07-17T07:18:32.572Z,54.10
2018-07-17T07:19:34.801Z,54.20
2018-07-17T07:20:37.011Z,54.20
2018-07-17T07:21:39.226Z,55.10
2018-07-17T07:22:41.859Z,54.20
2018-07-17T07:23:44.067Z,54.10
2018-07-17T07:24:46.255Z,53.70
2018-07-17T07:25:48.438Z,54.10
2018-07-17T07:26:50.636Z,54.20
2018-07-17T07:27:53.446Z,53.20
2018-07-17T07:28:55.676Z,53.60
2018-07-17T07:29:57.878Z,53.50
2018-07-17T07:31:00.897Z,53.20
2018-07-17T07:32:03.111Z,53.20
2018-07-17T07:33:05.522Z,53.50
2018-07-17T07:34:07.719Z,53.20
2018-07-17T07:35:09.921Z,53.20
2018-07-17T07:36:12.153Z,53.30
2018-07-17T07:37:14.403Z,53.30
2018-07-17T07:38:16.528Z,53.30
2018-07-17T07:39:18.742Z,53.30
2018-07-17T07:40:21.190Z,52.80
2018-07-17T07:41:23.414Z,53.80
2018-07-17T07:42:25.591Z,53.40
2018-07-17T07:43:27.770Z,53.10
2018-07-17T07:44:29.958Z,53.00
2018-07-17T07:45:32.196Z,53.10
2018-07-17T07:46:34.443Z,53.00
2018-07-17T07:47:36.628Z,52.30
2018-07-17T07:48:38.884Z,52.30
2018-07-17T07:49:41.046Z,52.20
2018-07-17T07:50:43.269Z,52.40
2018-07-17T07:51:45.509Z,52.00
2018-07-17T07:52:47.738Z,52.20
2018-07-17T07:53:50.288Z,52.10
2018-07-17T07:54:52.504Z,52.20
2018-07-17T07:55:54.722Z,52.20
2018-07-17T07:56:56.965Z,52.20
2018-07-17T07:57:59.206Z,51.50
2018-07-17T07:59:01.455Z,51.20
2018-07-17T08:01:06.010Z,51.30
2018-07-17T08:02:08.237Z,51.30
2018-07-17T08:04:12.822Z,51.30
2018-07-17T08:05:15.039Z,51.30
2018-07-17T08:07:19.419Z,51.20
2018-07-17T08:08:21.646Z,51.10
2018-07-17T08:09:23.870Z,51.20
2018-07-17T08:10:26.079Z,51.50
2018-07-17T08:11:28.289Z,51.30
2018-07-17T08:12:30.553Z,51.10
2018-07-17T08:13:32.745Z,51.00
2018-07-17T08:14:35.012Z,51.10
2018-07-17T08:15:37.183Z,51.30
2018-07-17T08:16:39.369Z,51.20
2018-07-17T08:17:41.954Z,51.20
2018-07-17T08:18:44.168Z,50.80
2018-07-17T08:19:46.366Z,50.10
2018-07-17T08:20:48.552Z,50.00
2018-07-17T08:21:50.773Z,50.10
2018-07-17T08:22:52.997Z,49.60
2018-07-17T08:23:55.198Z,49.70
2018-07-17T08:24:57.555Z,49.70
2018-07-17T08:25:59.826Z,49.70
2018-07-17T08:27:02.034Z,49.30
2018-07-17T08:28:04.290Z,49.00
2018-07-17T08:29:06.498Z,48.70
2018-07-17T08:30:08.699Z,48.40
2018-07-17T08:31:10.910Z,48.40
2018-07-17T08:32:13.130Z,48.30
2018-07-17T08:33:15.337Z,48.10
2018-07-17T08:34:17.548Z,48.10
2018-07-17T08:35:19.746Z,47.80
2018-07-17T08:36:21.946Z,47.80
2018-07-17T08:37:24.243Z,47.60
2018-07-17T08:39:28.677Z,47.60
2018-07-17T08:40:30.907Z,47.50
2018-07-17T08:41:33.106Z,47.60
2018-07-17T08:42:35.354Z,46.60
2018-07-17T08:43:37.567Z,47.20
2018-07-17T08:44:39.758Z,46.60
2018-07-17T08:45:42.337Z,46.70
2018-07-17T08:46:44.541Z,46.80
2018-07-17T08:47:46.765Z,46.80
2018-07-17T08:48:49.011Z,46.50
2018-07-17T08:49:51.336Z,46.70
2018-07-17T08:50:53.537Z,47.10
2018-07-17T08:51:55.715Z,47.20
2018-07-17T08:52:57.922Z,47.00
2018-07-17T08:54:00.160Z,47.30
2018-07-17T08:55:02.410Z,46.90
2018-07-17T08:56:04.634Z,47.20
2018-07-17T08:58:09.106Z,46.40
2018-07-17T08:59:11.311Z,46.40
2018-07-17T09:00:13.526Z,46.60
2018-07-17T09:01:15.770Z,45.80
2018-07-17T09:02:17.991Z,46.00
2018-07-17T09:03:20.240Z,46.10
2018-07-17T09:05:24.871Z,45.80
2018-07-17T09:06:27.128Z,45.60
2018-07-17T09:07:29.335Z,45.90
2018-07-17T09:08:31.554Z,45.90
2018-07-17T09:09:33.734Z,45.60
2018-07-17T09:10:35.982Z,46.00
2018-07-17T09:11:38.164Z,46.00
2018-07-17T09:12:40.366Z,46.00
2018-07-17T09:13:42.573Z,46.00
2018-07-17T09:15:46.994Z,45.40
2018-07-17T09:16:49.169Z,45.90
2018-07-17T09:17:51.378Z,45.60
2018-07-17T09:18:53.587Z,45.40
2018-07-17T09:19:55.774Z,45.60
2018-07-17T09:20:57.985Z,45.40
2018-07-17T09:22:00.165Z,45.80
2018-07-17T09:23:02.403Z,45.70
2018-07-17T09:24:04.630Z,44.70
2018-07-17T09:25:13.644Z,44.70
2018-07-17T09:26:15.842Z,44.00
2018-07-17T09:27:18.077Z,44.10
2018-07-17T09:28:20.329Z,44.40
2018-07-17T09:30:28.866Z,45.20
2018-07-17T09:31:31.072Z,44.30
2018-07-17T09:32:33.278Z,44.30
2018-07-17T09:33:35.512Z,44.00
2018-07-17T09:34:37.662Z,43.80
2018-07-17T09:35:39.842Z,43.90
2018-07-17T09:36:42.042Z,44.20
2018-07-17T09:37:44.243Z,43.90
2018-07-17T09:38:46.412Z,43.20
2018-07-17T09:39:48.590Z,42.20
2018-07-17T09:40:50.803Z,42.70
2018-07-17T09:42:55.242Z,42.60
2018-07-17T09:43:57.446Z,42.90
2018-07-17T09:44:59.651Z,42.30
2018-07-17T09:46:01.900Z,42.40
2018-07-17T09:47:04.267Z,42.90
2018-07-17T09:48:06.450Z,43.00
2018-07-17T09:49:08.658Z,42.10
2018-07-17T09:50:10.883Z,42.90
2018-07-17T09:51:13.077Z,41.80
2018-07-17T09:52:15.266Z,41.50
2018-07-17T09:53:17.608Z,41.20
2018-07-17T09:54:19.904Z,41.40
2018-07-17T09:55:22.052Z,41.40
2018-07-17T09:56:24.296Z,42.10
2018-07-17T09:57:26.549Z,41.80
2018-07-17T09:58:28.758Z,41.10
2018-07-17T09:59:30.957Z,40.90
2018-07-17T10:00:33.152Z,40.70
2018-07-17T10:01:40.995Z,40.50
2018-07-17T10:02:43.183Z,40.90
2018-07-17T10:04:47.809Z,40.20
2018-07-17T10:05:50.003Z,41.40
2018-07-17T10:06:52.206Z,39.10
2018-07-17T10:07:54.396Z,37.90
2018-07-17T10:08:56.644Z,39.40
2018-07-17T10:09:58.868Z,39.20
2018-07-17T10:11:01.114Z,38.70
2018-07-17T10:12:03.445Z,39.20
2018-07-17T10:13:05.734Z,38.40
2018-07-17T10:14:07.998Z,38.10
2018-07-17T10:15:10.282Z,38.20
2018-07-17T10:16:12.478Z,37.80
2018-07-17T10:17:14.737Z,38.10
2018-07-17T10:18:17.053Z,38.40
2018-07-17T10:19:19.271Z,39.10
2018-07-17T10:20:21.547Z,39.30
2018-07-17T10:21:23.737Z,39.00
2018-07-17T10:22:25.969Z,38.30
2018-07-17T10:23:28.183Z,37.80
2018-07-17T10:24:30.399Z,38.30
2018-07-17T10:25:32.609Z,38.80
2018-07-17T10:26:34.809Z,37.80
2018-07-17T10:27:37.533Z,37.90
2018-07-17T10:28:39.779Z,37.90
2018-07-17T10:29:41.982Z,37.90
2018-07-17T10:30:44.180Z,37.20
2018-07-17T10:31:46.405Z,37.90
2018-07-17T10:32:48.583Z,38.00
2018-07-17T10:33:50.787Z,38.00
2018-07-17T10:34:53.007Z,38.00
2018-07-17T10:36:57.421Z,37.10
2018-07-17T10:37:59.621Z,36.80
2018-07-17T10:39:01.876Z,37.00
2018-07-17T10:40:04.623Z,36.00
2018-07-17T10:41:06.826Z,35.80
2018-07-17T10:42:09.054Z,35.50
2018-07-17T10:43:11.282Z,35.40
2018-07-17T10:44:13.473Z,34.90
2018-07-17T10:45:15.696Z,35.50
2018-07-17T10:46:17.919Z,36.00
2018-07-17T10:47:20.106Z,34.70
2018-07-17T10:48:22.322Z,35.60
2018-07-17T10:49:24.513Z,36.50
2018-07-17T10:50:26.693Z,36.00
2018-07-17T10:51:28.882Z,37.00
2018-07-17T10:52:31.082Z,36.70
2018-07-17T10:53:33.262Z,37.30
2018-07-17T10:54:35.438Z,37.10
2018-07-17T10:55:37.741Z,35.80
2018-07-17T10:56:39.999Z,36.80
2018-07-17T10:57:42.174Z,35.40
2018-07-17T10:58:44.414Z,36.00
2018-07-17T10:59:46.630Z,35.40
2018-07-17T11:00:48.879Z,34.90
2018-07-17T11:01:51.046Z,36.30
2018-07-17T11:02:53.333Z,34.00
2018-07-17T11:04:57.851Z,35.50
2018-07-17T11:07:02.393Z,35.80
2018-07-17T11:08:04.641Z,35.30
2018-07-17T11:09:06.912Z,34.80
2018-07-17T11:10:09.074Z,34.10
2018-07-17T11:11:11.321Z,34.80
2018-07-17T11:12:13.539Z,34.10
2018-07-17T11:13:15.738Z,32.00
2018-07-17T11:14:17.948Z,32.70
2018-07-17T11:15:20.170Z,33.20
2018-07-17T11:16:22.338Z,33.40
2018-07-17T11:17:24.559Z,32.80
2018-07-17T11:18:26.738Z,33.20
2018-07-17T11:19:28.913Z,33.90
2018-07-17T11:20:31.110Z,33.40
2018-07-17T11:21:33.363Z,33.00
2018-07-17T11:22:35.814Z,33.10
2018-07-17T11:23:38.091Z,33.40
2018-07-17T11:24:40.390Z,32.80
2018-07-17T11:25:42.613Z,33.90
2018-07-17T11:26:44.975Z,33.40
2018-07-17T11:27:47.171Z,33.00
2018-07-17T11:28:49.381Z,32.80
2018-07-17T11:29:51.577Z,32.60
2018-07-17T11:30:53.797Z,33.10
2018-07-17T11:31:56.040Z,33.00
2018-07-17T11:32:58.269Z,33.00
2018-07-17T11:34:00.451Z,32.20
2018-07-17T11:35:02.721Z,31.00
2018-07-17T11:36:05.009Z,29.20
2018-07-17T11:37:07.214Z,29.20
2018-07-17T11:38:09.411Z,30.80
2018-07-17T11:39:11.582Z,31.20
2018-07-17T11:40:13.775Z,30.50
2018-07-17T11:41:16.026Z,29.90
2018-07-17T11:42:18.226Z,29.30
2018-07-17T11:44:22.710Z,30.60
2018-07-17T11:45:24.943Z,30.40
2018-07-17T11:46:27.117Z,31.50
2018-07-17T11:48:31.613Z,32.20
2018-07-17T11:49:33.797Z,31.30
2018-07-17T11:50:36.032Z,30.50
2018-07-17T11:51:38.230Z,30.50
2018-07-17T11:52:40.425Z,30.00
2018-07-17T11:53:42.605Z,30.70
2018-07-17T11:54:44.825Z,31.10
2018-07-17T11:55:47.011Z,30.00
2018-07-17T11:56:49.193Z,31.00
2018-07-17T11:57:51.654Z,31.80
2018-07-17T11:58:53.963Z,30.80
2018-07-17T11:59:56.129Z,29.40
2018-07-17T12:00:58.317Z,29.20
2018-07-17T12:02:00.559Z,28.60
2018-07-17T12:03:02.782Z,29.40
2018-07-17T12:04:05.261Z,29.40
2018-07-17T12:05:07.467Z,29.80
2018-07-17T12:06:09.690Z,29.40
2018-07-17T12:07:11.943Z,29.40
2018-07-17T12:08:14.157Z,29.40
2018-07-17T12:09:16.337Z,29.40
2018-07-17T12:10:18.669Z,29.50
2018-07-17T12:11:20.845Z,29.50
2018-07-17T12:12:23.050Z,29.80
2018-07-17T12:13:25.274Z,29.50
2018-07-17T12:14:27.490Z,29.60
2018-07-17T12:15:29.698Z,29.60
2018-07-17T12:16:31.904Z,28.60
2018-07-17T12:17:34.127Z,29.60
2018-07-17T12:18:36.337Z,29.30
2018-07-17T12:19:38.535Z,29.20
2018-07-17T12:20:40.790Z,28.90
2018-07-17T12:21:43.022Z,29.60
2018-07-17T12:22:45.265Z,28.80
2018-07-17T12:23:47.499Z,29.60
2018-07-17T12:24:49.723Z,29.60
2018-07-17T12:25:51.913Z,29.50
2018-07-17T12:26:54.102Z,29.10
2018-07-17T12:27:56.316Z,28.40
2018-07-17T12:28:58.566Z,29.50
2018-07-17T12:30:00.747Z,28.80
2018-07-17T12:31:02.983Z,29.50
2018-07-17T12:32:05.190Z,29.50
2018-07-17T12:33:07.394Z,28.30
2018-07-17T12:34:09.666Z,29.40
2018-07-17T12:35:11.878Z,27.60
2018-07-17T12:36:14.086Z,29.60
2018-07-17T12:37:16.257Z,29.70
2018-07-17T12:38:18.454Z,29.80
2018-07-17T12:39:20.661Z,29.80
2018-07-17T12:40:22.861Z,28.00
2018-07-17T12:41:25.105Z,28.70
2018-07-17T12:42:27.374Z,28.90
2018-07-17T12:43:29.519Z,27.20
2018-07-17T12:44:31.742Z,27.40
2018-07-17T12:45:33.975Z,28.70
2018-07-17T12:46:36.190Z,28.70
2018-07-17T12:47:38.385Z,28.30
2018-07-17T12:48:40.628Z,28.10
2018-07-17T12:49:42.814Z,28.80
2018-07-17T12:50:45.138Z,26.80
2018-07-17T12:51:47.419Z,27.80
2018-07-17T12:52:49.609Z,27.30
2018-07-17T12:53:51.823Z,27.20
2018-07-17T12:54:54.058Z,27.40
2018-07-17T12:55:56.271Z,26.80
2018-07-17T12:56:58.484Z,26.50
2018-07-17T12:58:00.673Z,27.60
2018-07-17T12:59:02.922Z,26.50
2018-07-17T13:01:07.469Z,27.10
2018-07-17T13:02:09.730Z,27.80
2018-07-17T13:04:14.186Z,27.60
2018-07-17T13:05:16.418Z,28.10
2018-07-17T13:06:18.635Z,28.00
2018-07-17T13:07:20.857Z,28.20
2018-07-17T13:08:23.089Z,28.40
2018-07-17T13:09:25.350Z,28.80
2018-07-17T13:10:27.715Z,29.50
2018-07-17T13:11:29.938Z,29.00
2018-07-17T13:12:32.140Z,29.50
2018-07-17T13:13:34.351Z,29.50
2018-07-17T13:14:36.568Z,29.50
2018-07-17T13:15:38.800Z,28.30
2018-07-17T13:16:41.010Z,29.00
2018-07-17T13:17:43.224Z,29.50
2018-07-17T13:18:45.407Z,28.90
2018-07-17T13:19:47.599Z,28.00
2018-07-17T13:20:49.814Z,28.50
2018-07-17T13:21:52.039Z,28.80
2018-07-17T13:22:54.242Z,27.60
2018-07-17T13:23:56.545Z,27.90
2018-07-17T13:24:58.740Z,26.20
2018-07-17T13:26:00.960Z,27.30
2018-07-17T13:27:03.183Z,27.10
2018-07-17T13:28:05.422Z,27.80
2018-07-17T13:30:09.923Z,26.80
2018-07-17T13:31:12.160Z,26.40
2018-07-17T13:32:14.373Z,26.30
2018-07-17T13:33:16.570Z,26.80
2018-07-17T13:34:18.799Z,26.50
2018-07-17T13:35:21.003Z,26.30
2018-07-17T13:36:23.186Z,27.40
2018-07-17T13:37:25.413Z,27.90
2018-07-17T13:38:27.617Z,29.10
2018-07-17T13:39:29.847Z,29.60
2018-07-17T13:40:32.057Z,30.20
2018-07-17T13:41:34.269Z,30.80
2018-07-17T13:43:38.747Z,31.10
2018-07-17T13:45:43.138Z,31.80
2018-07-17T13:46:45.349Z,31.80
2018-07-17T13:47:47.546Z,32.10
2018-07-17T13:48:49.752Z,32.20
2018-07-17T13:49:52.054Z,32.50
2018-07-17T13:50:54.294Z,32.50
2018-07-17T13:51:56.559Z,31.80
2018-07-17T13:52:58.893Z,31.50
2018-07-17T13:54:01.090Z,31.60
2018-07-17T13:56:05.586Z,31.20
2018-07-17T13:57:07.806Z,31.40
2018-07-17T13:58:10.008Z,32.60
2018-07-17T13:59:12.239Z,31.80
2018-07-17T14:00:14.457Z,31.60
2018-07-17T14:01:16.666Z,31.50
2018-07-17T14:02:18.929Z,32.20
2018-07-17T14:03:21.086Z,32.00
2018-07-17T14:04:23.294Z,32.30
2018-07-17T14:05:25.538Z,31.70
2018-07-17T14:07:29.952Z,31.90
2018-07-17T14:09:34.486Z,32.30
2018-07-17T14:10:36.757Z,31.80
2018-07-17T14:11:38.986Z,31.60
2018-07-17T14:12:41.227Z,31.00
2018-07-17T14:13:43.434Z,31.40
2018-07-17T14:14:45.669Z,31.00
2018-07-17T14:15:47.913Z,30.80
2018-07-17T14:16:50.102Z,30.60
2018-07-17T14:17:52.286Z,30.20
2018-07-17T14:19:56.732Z,29.80
2018-07-17T14:20:59.000Z,30.10
2018-07-17T14:22:01.266Z,30.00
2018-07-17T14:23:03.661Z,30.80
2018-07-17T14:24:05.869Z,31.00
2018-07-17T14:25:08.066Z,31.20
2018-07-17T14:26:10.262Z,31.40
2018-07-17T14:27:12.462Z,32.10
2018-07-17T14:28:14.657Z,32.10
2018-07-17T14:29:16.858Z,32.70